createdAt,value
2022-12-22T00:02:52.426Z,9.24
2022-12-22T00:08:12.480Z,9.10
2022-12-22T00:13:34.262Z,8.99
2022-12-22T00:18:54.161Z,8.89
2022-12-22T00:24:13.809Z,8.82
2022-12-22T00:29:34.390Z,8.75
2022-12-22T00:35:00.302Z,8.75
2022-12-22T00:40:20.927Z,8.77
2022-12-22T00:45:41.415Z,8.72
2022-12-22T00:51:01.576Z,8.73
2022-12-22T00:56:25.685Z,8.73
2022-12-22T01:01:45.792Z,8.85
2022-12-22T01:07:05.923Z,8.95
2022-12-22T01:12:35.672Z,8.92
2022-12-22T01:17:55.576Z,8.82
2022-12-22T01:23:15.605Z,8.70
2022-12-22T01:28:36.304Z,8.67
2022-12-22T01:33:56.186Z,8.67
2022-12-22T01:39:15.940Z,8.75
2022-12-22T01:44:36.982Z,8.87
2022-12-22T01:50:02.226Z,8.90
2022-12-22T01:55:27.796Z,8.90
2022-12-22T02:00:48.154Z,8.90
2022-12-22T02:06:29.451Z,8.86
2022-12-22T02:11:58.511Z,8.89
2022-12-22T02:17:33.974Z,8.90
2022-12-22T02:23:05.190Z,8.96
2022-12-22T02:28:25.403Z,9.00
2022-12-22T02:33:45.549Z,8.99
2022-12-22T02:39:37.903Z,9.02
2022-12-22T02:45:07.830Z,8.99
2022-12-22T02:50:38.661Z,8.97
2022-12-22T02:55:58.967Z,8.97
2022-12-22T03:01:21.678Z,8.97
2022-12-22T03:06:41.693Z,8.98
2022-12-22T03:12:01.615Z,9.02
2022-12-22T03:17:22.051Z,8.99
2022-12-22T03:22:41.744Z,8.88
2022-12-22T03:27:43.135Z,8.74
2022-12-22T03:32:44.537Z,8.53
2022-12-22T03:37:45.930Z,8.36
2022-12-22T03:43:06.065Z,8.22
2022-12-22T03:48:07.487Z,8.10
2022-12-22T03:53:08.952Z,8.03
2022-12-22T03:58:10.361Z,8.01
2022-12-22T04:03:11.991Z,7.98
2022-12-22T04:08:13.561Z,8.00
2022-12-22T04:13:14.949Z,7.97
2022-12-22T04:18:16.356Z,7.83
2022-12-22T04:23:17.765Z,7.72
2022-12-22T04:28:19.240Z,7.57
2022-12-22T04:33:20.689Z,7.50
2022-12-22T04:38:22.108Z,7.62
2022-12-22T04:43:23.501Z,7.92
2022-12-22T04:48:26.797Z,8.17
2022-12-22T04:53:30.053Z,8.30
2022-12-22T04:58:32.543Z,8.42
2022-12-22T05:03:34.021Z,8.54
2022-12-22T05:08:35.685Z,8.64
2022-12-22T05:13:37.505Z,8.71
2022-12-22T05:18:40.076Z,8.81
2022-12-22T05:23:42.417Z,8.90
2022-12-22T05:28:46.197Z,8.98
2022-12-22T05:33:48.184Z,9.06
2022-12-22T05:38:49.627Z,9.12
2022-12-22T05:43:51.022Z,9.15
2022-12-22T05:48:52.418Z,9.15
2022-12-22T05:53:53.847Z,9.18
2022-12-22T05:58:55.340Z,9.21
2022-12-22T06:04:00.418Z,9.27
2022-12-22T06:09:02.252Z,9.31
2022-12-22T06:14:03.649Z,9.32
2022-12-22T06:19:05.185Z,9.31
2022-12-22T06:24:07.058Z,9.33
2022-12-22T06:29:08.492Z,9.34
2022-12-22T06:34:11.037Z,9.32
2022-12-22T06:39:13.959Z,9.29
2022-12-22T06:44:15.309Z,9.26
2022-12-22T06:49:16.701Z,9.23
2022-12-22T06:54:23.955Z,9.20
2022-12-22T06:59:27.485Z,9.19
2022-12-22T07:04:29.666Z,9.21
2022-12-22T07:09:31.086Z,9.20
2022-12-22T07:14:32.539Z,9.21
2022-12-22T07:19:33.980Z,9.23
2022-12-22T07:24:35.430Z,9.27
2022-12-22T07:29:37.037Z,9.30
2022-12-22T07:34:38.460Z,9.34
2022-12-22T07:39:39.880Z,9.34
2022-12-22T07:44:41.309Z,9.35
2022-12-22T07:50:01.059Z,9.38
2022-12-22T07:55:02.478Z,9.39
2022-12-22T08:00:04.702Z,9.44
2022-12-22T08:05:13.655Z,9.49
2022-12-22T08:10:16.123Z,9.56
2022-12-22T08:15:19.030Z,9.64
2022-12-22T08:26:01.023Z,9.83
2022-12-22T08:31:04.333Z,9.94
2022-12-22T08:36:08.648Z,9.98
2022-12-22T08:41:55.982Z,10.04
2022-12-22T08:47:02.215Z,10.15
2022-12-22T08:52:05.584Z,10.29
2022-12-22T08:57:10.931Z,10.41
2022-12-22T09:02:13.237Z,10.50
2022-12-22T09:07:16.116Z,10.59
2022-12-22T09:12:18.094Z,10.74
2022-12-22T09:17:19.772Z,10.93
2022-12-22T09:22:28.141Z,11.08
2022-12-22T09:27:33.442Z,11.23
2022-12-22T09:32:35.114Z,11.30
2022-12-22T09:37:43.452Z,11.38
2022-12-22T09:42:59.189Z,11.43
2022-12-22T09:48:11.850Z,11.46
2022-12-22T09:53:28.758Z,11.51
2022-12-22T09:58:44.147Z,11.54
2022-12-22T10:04:05.475Z,11.63
2022-12-22T10:09:48.700Z,11.73
2022-12-22T10:14:51.398Z,11.86
2022-12-22T10:19:54.896Z,11.96
2022-12-22T10:24:57.564Z,11.94
2022-12-22T10:37:00.568Z,11.56
2022-12-22T10:42:13.694Z,11.43
2022-12-22T10:53:58.144Z,11.39
2022-12-22T10:59:02.982Z,11.44
2022-12-22T11:04:23.758Z,11.45
2022-12-22T11:09:35.332Z,11.41
2022-12-22T11:14:52.424Z,11.45
2022-12-22T11:20:20.795Z,11.36
2022-12-22T11:25:36.773Z,11.22
2022-12-22T11:30:44.606Z,11.15
2022-12-22T11:36:15.821Z,11.05
2022-12-22T11:41:50.089Z,11.05
2022-12-22T11:46:58.729Z,11.03
2022-12-22T11:52:08.357Z,10.99
2022-12-22T11:57:28.432Z,11.04
2022-12-22T12:02:45.373Z,11.12
2022-12-22T12:08:09.983Z,11.13
2022-12-22T12:14:19.462Z,11.19
2022-12-22T12:19:28.820Z,11.15
2022-12-22T12:24:45.433Z,11.15
2022-12-22T12:30:35.625Z,11.26
2022-12-22T12:35:40.526Z,11.42
2022-12-22T12:40:55.735Z,11.52
2022-12-22T12:45:57.594Z,11.66
2022-12-22T12:50:59.626Z,11.82
2022-12-22T12:56:05.072Z,11.93
2022-12-22T13:01:13.558Z,12.02
2022-12-22T13:06:52.236Z,12.09
2022-12-22T13:12:12.187Z,12.01
2022-12-22T13:17:51.965Z,12.00
2022-12-22T13:22:56.488Z,11.95
2022-12-22T13:28:01.921Z,11.89
2022-12-22T13:33:15.217Z,11.87
2022-12-22T13:38:31.343Z,11.84
2022-12-22T13:43:36.337Z,11.74
2022-12-22T13:48:48.925Z,11.68
2022-12-22T13:54:11.896Z,11.65
2022-12-22T13:59:40.644Z,11.65
2022-12-22T14:05:24.350Z,11.62
2022-12-22T14:10:34.205Z,11.57
2022-12-22T14:15:35.759Z,11.59
2022-12-22T14:20:39.993Z,11.60
2022-12-22T14:25:44.550Z,11.58
2022-12-22T14:30:50.371Z,11.56
2022-12-22T14:35:52.062Z,11.55
2022-12-22T14:40:57.683Z,11.53
2022-12-22T14:46:07.244Z,11.45
2022-12-22T14:51:09.242Z,11.40
2022-12-22T14:56:15.470Z,11.44
2022-12-22T15:01:28.120Z,11.43
2022-12-22T15:06:29.701Z,11.36
2022-12-22T15:11:31.480Z,11.22
2022-12-22T15:16:32.962Z,11.08
2022-12-22T15:21:35.491Z,10.87
2022-12-22T15:26:38.061Z,10.69
2022-12-22T15:31:41.317Z,10.54
2022-12-22T15:36:42.791Z,10.33
2022-12-22T15:41:45.120Z,10.16
2022-12-22T15:46:54.338Z,10.02
2022-12-22T15:52:00.411Z,9.90
2022-12-22T15:57:02.038Z,9.84
2022-12-22T16:02:03.605Z,9.80
2022-12-22T16:07:05.715Z,9.77
2022-12-22T16:12:18.629Z,9.77
2022-12-22T16:17:23.311Z,9.74
2022-12-22T16:22:42.723Z,9.70
2022-12-22T16:27:47.670Z,9.63
2022-12-22T16:32:49.991Z,9.56
2022-12-22T16:37:51.649Z,9.50
2022-12-22T16:48:51.706Z,9.38
2022-12-22T16:53:54.049Z,9.32
2022-12-22T16:58:56.016Z,9.24
2022-12-22T17:04:02.589Z,9.20
2022-12-22T17:09:07.183Z,9.18
2022-12-22T17:14:20.626Z,9.18
2022-12-22T17:19:22.047Z,9.16
2022-12-22T17:24:28.328Z,9.12
2022-12-22T17:29:30.128Z,9.12
2022-12-22T17:34:31.666Z,9.09
2022-12-22T17:39:33.791Z,9.04
2022-12-22T17:44:35.244Z,8.99
2022-12-22T17:49:36.867Z,8.99
2022-12-22T17:54:38.259Z,8.99
2022-12-22T17:59:39.712Z,8.95
2022-12-22T18:04:41.178Z,8.95
2022-12-22T18:09:43.525Z,9.01
2022-12-22T18:14:45.049Z,9.06
2022-12-22T18:19:46.690Z,9.09
2022-12-22T18:24:52.824Z,9.11
2022-12-22T18:29:54.380Z,9.13
2022-12-22T18:34:55.860Z,9.12
2022-12-22T18:39:57.290Z,9.11
2022-12-22T18:44:58.725Z,9.01
2022-12-22T18:50:02.780Z,8.92
2022-12-22T18:55:05.448Z,8.86
2022-12-22T19:00:13.927Z,8.79
2022-12-22T19:05:20.066Z,8.87
2022-12-22T19:10:38.986Z,8.97
2022-12-22T19:15:40.610Z,8.93
2022-12-22T19:20:42.041Z,8.84
2022-12-22T19:25:45.662Z,8.71
2022-12-22T19:30:47.201Z,8.67
2022-12-22T19:35:48.689Z,8.72
2022-12-22T19:40:52.525Z,8.71
2022-12-22T19:45:54.321Z,8.71
2022-12-22T19:50:55.812Z,8.71
2022-12-22T19:55:57.773Z,8.68
2022-12-22T20:00:59.392Z,8.65
2022-12-22T20:06:00.829Z,8.69
2022-12-22T20:11:02.578Z,8.76
2022-12-22T20:16:04.220Z,8.85
2022-12-22T20:21:10.712Z,8.94
2022-12-22T20:26:16.423Z,9.02
2022-12-22T20:31:21.369Z,9.07
2022-12-22T20:36:26.424Z,9.15
2022-12-22T20:41:28.098Z,9.21
2022-12-22T20:46:30.074Z,9.23
2022-12-22T20:51:33.516Z,9.23
2022-12-22T20:56:38.059Z,9.21
2022-12-22T21:01:39.775Z,9.12
2022-12-22T21:06:53.299Z,9.02
2022-12-22T21:11:54.692Z,8.97
2022-12-22T21:16:56.392Z,8.88
2022-12-22T21:21:57.842Z,8.82
2022-12-22T21:26:59.469Z,8.75
2022-12-22T21:32:00.889Z,8.76
2022-12-22T21:37:03.050Z,8.83
2022-12-22T21:42:05.459Z,8.95
2022-12-22T21:47:06.932Z,9.01
2022-12-22T21:52:08.437Z,9.10
2022-12-22T21:57:15.704Z,9.14
2022-12-22T22:02:18.559Z,9.10
2022-12-22T22:07:19.979Z,8.98
2022-12-22T22:12:33.287Z,8.90
2022-12-22T22:17:34.747Z,8.83
2022-12-22T22:22:36.397Z,8.90
2022-12-22T22:27:42.921Z,8.96
2022-12-22T22:32:48.358Z,8.95
2022-12-22T22:37:51.259Z,8.98
2022-12-22T22:42:52.752Z,9.00
2022-12-22T22:47:54.251Z,9.02
2022-12-22T22:52:55.872Z,9.08
2022-12-22T22:57:57.264Z,9.12
2022-12-22T23:03:00.397Z,9.09
2022-12-22T23:08:02.056Z,9.02
2022-12-22T23:13:04.633Z,8.93
2022-12-22T23:18:06.043Z,8.84
2022-12-22T23:23:07.449Z,8.74
2022-12-22T23:28:09.256Z,8.67
2022-12-22T23:33:11.170Z,8.65
2022-12-22T23:38:12.887Z,8.67
2022-12-22T23:43:14.850Z,8.76
2022-12-22T23:48:16.467Z,8.84
2022-12-22T23:53:17.902Z,8.88
2022-12-22T23:58:19.381Z,8.89
